sensor_id;sensor_type;location;lat;lon;timestamp;P1;durP1;ratioP1;P2;durP2;ratioP2
38567;SDS011;24338;48.280;10.970;2022-09-09T00:03:56;4.00;;;2.20;;
38567;SDS011;24338;48.280;10.970;2022-09-09T00:06:32;3.65;;;1.58;;
38567;SDS011;24338;48.280;10.970;2022-09-09T00:09:12;5.95;;;2.03;;
38567;SDS011;24338;48.280;10.970;2022-09-09T00:11:43;5.03;;;1.90;;
38567;SDS011;24338;48.280;10.970;2022-09-09T00:14:17;3.50;;;1.83;;
38567;SDS011;24338;48.280;10.970;2022-09-09T00:16:54;3.35;;;1.92;;
38567;SDS011;24338;48.280;10.970;2022-09-09T00:19:44;5.30;;;1.65;;
38567;SDS011;24338;48.280;10.970;2022-09-09T00:22:20;6.38;;;2.25;;
38567;SDS011;24338;48.280;10.970;2022-09-09T00:24:53;4.60;;;1.60;;
38567;SDS011;24338;48.280;10.970;2022-09-09T00:29:57;5.93;;;1.85;;
38567;SDS011;24338;48.280;10.970;2022-09-09T00:32:50;3.10;;;1.90;;
38567;SDS011;24338;48.280;10.970;2022-09-09T00:35:40;2.97;;;1.35;;
38567;SDS011;24338;48.280;10.970;2022-09-09T00:38:14;3.50;;;1.88;;
38567;SDS011;24338;48.280;10.970;2022-09-09T00:43:40;4.95;;;1.65;;
38567;SDS011;24338;48.280;10.970;2022-09-09T00:57:00;2.40;;;1.33;;
38567;SDS011;24338;48.280;10.970;2022-09-09T00:59:47;3.92;;;1.38;;
38567;SDS011;24338;48.280;10.970;2022-09-09T01:04:54;4.32;;;1.77;;
38567;SDS011;24338;48.280;10.970;2022-09-09T01:10:05;3.40;;;1.55;;
38567;SDS011;24338;48.280;10.970;2022-09-09T01:12:41;3.10;;;1.75;;
38567;SDS011;24338;48.280;10.970;2022-09-09T01:15:11;3.70;;;1.83;;
38567;SDS011;24338;48.280;10.970;2022-09-09T01:17:52;5.15;;;1.77;;
38567;SDS011;24338;48.280;10.970;2022-09-09T01:20:39;3.15;;;1.52;;
38567;SDS011;24338;48.280;10.970;2022-09-09T01:24:00;3.53;;;1.48;;
38567;SDS011;24338;48.280;10.970;2022-09-09T01:28:48;4.10;;;1.40;;
38567;SDS011;24338;48.280;10.970;2022-09-09T01:31:21;4.13;;;1.52;;
38567;SDS011;24338;48.280;10.970;2022-09-09T01:33:53;3.03;;;1.40;;
38567;SDS011;24338;48.280;10.970;2022-09-09T01:36:31;2.38;;;1.17;;
38567;SDS011;24338;48.280;10.970;2022-09-09T01:39:05;2.63;;;1.20;;
38567;SDS011;24338;48.280;10.970;2022-09-09T01:41:32;3.17;;;1.60;;
38567;SDS011;24338;48.280;10.970;2022-09-09T01:43:59;4.60;;;1.50;;
38567;SDS011;24338;48.280;10.970;2022-09-09T01:46:27;6.18;;;1.70;;
38567;SDS011;24338;48.280;10.970;2022-09-09T01:48:55;3.22;;;1.30;;
38567;SDS011;24338;48.280;10.970;2022-09-09T01:51:23;3.17;;;1.20;;
38567;SDS011;24338;48.280;10.970;2022-09-09T01:53:50;5.22;;;1.75;;
38567;SDS011;24338;48.280;10.970;2022-09-09T01:56:20;3.83;;;1.33;;
38567;SDS011;24338;48.280;10.970;2022-09-09T02:07:11;5.07;;;1.75;;
38567;SDS011;24338;48.280;10.970;2022-09-09T02:10:21;3.83;;;1.52;;
38567;SDS011;24338;48.280;10.970;2022-09-09T02:12:52;3.67;;;2.17;;
38567;SDS011;24338;48.280;10.970;2022-09-09T02:15:30;4.03;;;1.73;;
38567;SDS011;24338;48.280;10.970;2022-09-09T02:18:03;4.35;;;2.05;;
38567;SDS011;24338;48.280;10.970;2022-09-09T02:20:35;4.88;;;1.95;;
38567;SDS011;24338;48.280;10.970;2022-09-09T02:23:04;3.95;;;1.92;;
38567;SDS011;24338;48.280;10.970;2022-09-09T02:25:35;6.78;;;1.50;;
38567;SDS011;24338;48.280;10.970;2022-09-09T02:28:04;7.03;;;1.65;;
38567;SDS011;24338;48.280;10.970;2022-09-09T02:30:34;3.47;;;1.63;;
38567;SDS011;24338;48.280;10.970;2022-09-09T02:33:03;2.78;;;1.30;;
38567;SDS011;24338;48.280;10.970;2022-09-09T02:35:32;6.50;;;1.45;;
38567;SDS011;24338;48.280;10.970;2022-09-09T02:38:04;5.85;;;1.77;;
38567;SDS011;24338;48.280;10.970;2022-09-09T02:40:36;4.45;;;1.48;;
38567;SDS011;24338;48.280;10.970;2022-09-09T02:43:03;4.15;;;1.63;;
38567;SDS011;24338;48.280;10.970;2022-09-09T02:45:32;4.65;;;1.30;;
38567;SDS011;24338;48.280;10.970;2022-09-09T02:48:11;4.22;;;1.45;;
38567;SDS011;24338;48.280;10.970;2022-09-09T02:53:47;4.75;;;1.65;;
38567;SDS011;24338;48.280;10.970;2022-09-09T02:56:36;3.50;;;2.08;;
38567;SDS011;24338;48.280;10.970;2022-09-09T02:59:10;2.88;;;1.40;;
38567;SDS011;24338;48.280;10.970;2022-09-09T03:01:37;7.30;;;1.70;;
38567;SDS011;24338;48.280;10.970;2022-09-09T03:04:06;4.22;;;1.90;;
38567;SDS011;24338;48.280;10.970;2022-09-09T03:06:33;3.88;;;1.30;;
38567;SDS011;24338;48.280;10.970;2022-09-09T03:09:00;3.60;;;1.38;;
38567;SDS011;24338;48.280;10.970;2022-09-09T03:11:28;5.53;;;1.88;;
38567;SDS011;24338;48.280;10.970;2022-09-09T03:13:55;5.70;;;1.65;;
38567;SDS011;24338;48.280;10.970;2022-09-09T03:16:22;2.95;;;1.27;;
38567;SDS011;24338;48.280;10.970;2022-09-09T03:18:49;4.80;;;1.45;;
38567;SDS011;24338;48.280;10.970;2022-09-09T03:21:17;3.63;;;1.30;;
38567;SDS011;24338;48.280;10.970;2022-09-09T03:23:44;4.55;;;2.17;;
38567;SDS011;24338;48.280;10.970;2022-09-09T03:26:14;6.00;;;1.20;;
38567;SDS011;24338;48.280;10.970;2022-09-09T03:28:43;3.63;;;1.70;;
38567;SDS011;24338;48.280;10.970;2022-09-09T03:31:11;3.90;;;1.70;;
38567;SDS011;24338;48.280;10.970;2022-09-09T03:33:38;2.88;;;1.45;;
38567;SDS011;24338;48.280;10.970;2022-09-09T03:36:05;3.45;;;1.40;;
38567;SDS011;24338;48.280;10.970;2022-09-09T03:38:33;4.22;;;1.73;;
38567;SDS011;24338;48.280;10.970;2022-09-09T03:41:00;2.55;;;1.30;;
38567;SDS011;24338;48.280;10.970;2022-09-09T03:43:28;3.75;;;1.48;;
38567;SDS011;24338;48.280;10.970;2022-09-09T03:45:55;3.13;;;1.23;;
38567;SDS011;24338;48.280;10.970;2022-09-09T03:48:25;2.47;;;1.15;;
38567;SDS011;24338;48.280;10.970;2022-09-09T03:50:54;3.38;;;1.30;;
38567;SDS011;24338;48.280;10.970;2022-09-09T03:53:27;2.53;;;1.00;;
38567;SDS011;24338;48.280;10.970;2022-09-09T03:55:55;3.45;;;1.15;;
38567;SDS011;24338;48.280;10.970;2022-09-09T03:58:26;3.58;;;0.82;;
38567;SDS011;24338;48.280;10.970;2022-09-09T04:00:57;3.30;;;1.25;;
38567;SDS011;24338;48.280;10.970;2022-09-09T04:03:28;3.35;;;1.00;;
38567;SDS011;24338;48.280;10.970;2022-09-09T04:05:56;2.85;;;1.40;;
38567;SDS011;24338;48.280;10.970;2022-09-09T04:08:25;5.70;;;1.70;;
38567;SDS011;24338;48.280;10.970;2022-09-09T04:10:52;2.80;;;1.15;;
38567;SDS011;24338;48.280;10.970;2022-09-09T04:13:23;2.60;;;1.23;;
38567;SDS011;24338;48.280;10.970;2022-09-09T04:15:52;4.75;;;2.10;;
38567;SDS011;24338;48.280;10.970;2022-09-09T04:18:20;3.92;;;1.38;;
38567;SDS011;24338;48.280;10.970;2022-09-09T04:20:48;4.47;;;1.67;;
38567;SDS011;24338;48.280;10.970;2022-09-09T04:23:16;3.28;;;1.50;;
38567;SDS011;24338;48.280;10.970;2022-09-09T04:25:45;3.38;;;1.30;;
38567;SDS011;24338;48.280;10.970;2022-09-09T04:28:15;3.00;;;1.40;;
38567;SDS011;24338;48.280;10.970;2022-09-09T04:30:43;1.83;;;0.85;;
38567;SDS011;24338;48.280;10.970;2022-09-09T04:33:11;2.92;;;1.08;;
38567;SDS011;24338;48.280;10.970;2022-09-09T04:35:39;3.65;;;1.20;;
38567;SDS011;24338;48.280;10.970;2022-09-09T04:38:14;5.28;;;1.30;;
38567;SDS011;24338;48.280;10.970;2022-09-09T04:40:43;3.65;;;1.25;;
38567;SDS011;24338;48.280;10.970;2022-09-09T04:43:12;2.70;;;1.13;;
38567;SDS011;24338;48.280;10.970;2022-09-09T04:45:41;4.63;;;1.23;;
38567;SDS011;24338;48.280;10.970;2022-09-09T04:48:08;4.72;;;1.52;;
38567;SDS011;24338;48.280;10.970;2022-09-09T04:50:39;2.20;;;1.20;;
38567;SDS011;24338;48.280;10.970;2022-09-09T04:53:07;2.85;;;1.15;;
38567;SDS011;24338;48.280;10.970;2022-09-09T04:55:34;3.50;;;1.17;;
38567;SDS011;24338;48.280;10.970;2022-09-09T04:58:04;4.28;;;1.45;;
38567;SDS011;24338;48.280;10.970;2022-09-09T05:00:32;3.47;;;1.50;;
38567;SDS011;24338;48.280;10.970;2022-09-09T05:03:02;4.07;;;1.90;;
38567;SDS011;24338;48.280;10.970;2022-09-09T05:05:35;5.32;;;1.30;;
38567;SDS011;24338;48.280;10.970;2022-09-09T05:08:02;4.18;;;1.30;;
38567;SDS011;24338;48.280;10.970;2022-09-09T05:10:32;2.90;;;1.77;;
38567;SDS011;24338;48.280;10.970;2022-09-09T05:13:00;3.05;;;1.63;;
38567;SDS011;24338;48.280;10.970;2022-09-09T05:15:27;4.28;;;1.50;;
38567;SDS011;24338;48.280;10.970;2022-09-09T05:18:00;5.57;;;1.83;;
38567;SDS011;24338;48.280;10.970;2022-09-09T05:20:28;3.67;;;1.58;;
38567;SDS011;24338;48.280;10.970;2022-09-09T05:22:55;3.92;;;1.48;;
38567;SDS011;24338;48.280;10.970;2022-09-09T05:25:23;4.07;;;1.40;;
38567;SDS011;24338;48.280;10.970;2022-09-09T05:27:52;2.60;;;1.30;;
38567;SDS011;24338;48.280;10.970;2022-09-09T05:30:20;3.47;;;1.10;;
38567;SDS011;24338;48.280;10.970;2022-09-09T05:32:49;2.53;;;1.20;;
38567;SDS011;24338;48.280;10.970;2022-09-09T05:35:16;2.80;;;1.20;;
38567;SDS011;24338;48.280;10.970;2022-09-09T05:37:45;6.13;;;1.55;;
38567;SDS011;24338;48.280;10.970;2022-09-09T05:40:12;4.22;;;1.20;;
38567;SDS011;24338;48.280;10.970;2022-09-09T05:42:39;2.40;;;0.90;;
38567;SDS011;24338;48.280;10.970;2022-09-09T05:45:07;3.33;;;1.40;;
38567;SDS011;24338;48.280;10.970;2022-09-09T05:47:35;3.60;;;1.08;;
38567;SDS011;24338;48.280;10.970;2022-09-09T05:50:03;2.90;;;0.93;;
38567;SDS011;24338;48.280;10.970;2022-09-09T05:52:30;4.22;;;1.20;;
38567;SDS011;24338;48.280;10.970;2022-09-09T05:54:58;4.57;;;1.40;;
38567;SDS011;24338;48.280;10.970;2022-09-09T05:57:25;3.90;;;1.10;;
38567;SDS011;24338;48.280;10.970;2022-09-09T05:59:52;3.00;;;1.27;;
38567;SDS011;24338;48.280;10.970;2022-09-09T06:02:19;4.05;;;1.38;;
38567;SDS011;24338;48.280;10.970;2022-09-09T06:04:46;5.10;;;1.50;;
38567;SDS011;24338;48.280;10.970;2022-09-09T06:07:13;4.75;;;2.33;;
38567;SDS011;24338;48.280;10.970;2022-09-09T06:09:40;4.13;;;1.83;;
38567;SDS011;24338;48.280;10.970;2022-09-09T06:12:07;4.07;;;1.42;;
38567;SDS011;24338;48.280;10.970;2022-09-09T06:14:35;3.42;;;1.95;;
38567;SDS011;24338;48.280;10.970;2022-09-09T06:17:03;4.90;;;2.08;;
38567;SDS011;24338;48.280;10.970;2022-09-09T06:19:31;3.90;;;2.05;;
38567;SDS011;24338;48.280;10.970;2022-09-09T06:21:58;4.97;;;1.98;;
38567;SDS011;24338;48.280;10.970;2022-09-09T06:24:25;3.72;;;1.45;;
38567;SDS011;24338;48.280;10.970;2022-09-09T06:26:51;5.00;;;1.83;;
38567;SDS011;24338;48.280;10.970;2022-09-09T06:29:18;5.15;;;1.98;;
38567;SDS011;24338;48.280;10.970;2022-09-09T06:31:45;3.53;;;1.60;;
38567;SDS011;24338;48.280;10.970;2022-09-09T06:34:12;3.15;;;1.60;;
38567;SDS011;24338;48.280;10.970;2022-09-09T06:36:39;4.80;;;1.55;;
38567;SDS011;24338;48.280;10.970;2022-09-09T06:39:06;3.92;;;1.58;;
38567;SDS011;24338;48.280;10.970;2022-09-09T06:41:40;4.28;;;1.75;;
38567;SDS011;24338;48.280;10.970;2022-09-09T06:44:07;3.65;;;1.67;;
38567;SDS011;24338;48.280;10.970;2022-09-09T06:46:36;2.40;;;1.20;;
38567;SDS011;24338;48.280;10.970;2022-09-09T06:49:04;5.47;;;1.58;;
38567;SDS011;24338;48.280;10.970;2022-09-09T06:51:34;3.15;;;1.50;;
38567;SDS011;24338;48.280;10.970;2022-09-09T06:54:02;6.40;;;1.25;;
38567;SDS011;24338;48.280;10.970;2022-09-09T06:56:30;3.25;;;1.35;;
38567;SDS011;24338;48.280;10.970;2022-09-09T06:59:06;3.50;;;1.42;;
38567;SDS011;24338;48.280;10.970;2022-09-09T07:01:35;3.35;;;1.02;;
38567;SDS011;24338;48.280;10.970;2022-09-09T07:04:04;7.15;;;1.38;;
38567;SDS011;24338;48.280;10.970;2022-09-09T07:06:36;3.45;;;1.23;;
38567;SDS011;24338;48.280;10.970;2022-09-09T07:09:05;3.75;;;1.30;;
38567;SDS011;24338;48.280;10.970;2022-09-09T07:11:44;5.88;;;1.08;;
38567;SDS011;24338;48.280;10.970;2022-09-09T07:14:12;3.80;;;1.50;;
38567;SDS011;24338;48.280;10.970;2022-09-09T07:16:41;3.67;;;1.13;;
38567;SDS011;24338;48.280;10.970;2022-09-09T07:19:08;4.43;;;1.45;;
38567;SDS011;24338;48.280;10.970;2022-09-09T07:21:35;5.00;;;1.50;;
38567;SDS011;24338;48.280;10.970;2022-09-09T07:24:02;3.53;;;1.40;;
38567;SDS011;24338;48.280;10.970;2022-09-09T07:26:31;4.00;;;1.40;;
38567;SDS011;24338;48.280;10.970;2022-09-09T07:29:10;3.67;;;1.52;;
38567;SDS011;24338;48.280;10.970;2022-09-09T07:31:45;3.38;;;1.35;;
38567;SDS011;24338;48.280;10.970;2022-09-09T07:34:12;3.90;;;1.38;;
38567;SDS011;24338;48.280;10.970;2022-09-09T07:36:39;2.85;;;1.20;;
38567;SDS011;24338;48.280;10.970;2022-09-09T07:39:12;3.60;;;1.30;;
38567;SDS011;24338;48.280;10.970;2022-09-09T07:41:43;5.50;;;1.83;;
38567;SDS011;24338;48.280;10.970;2022-09-09T07:44:13;3.65;;;1.35;;
38567;SDS011;24338;48.280;10.970;2022-09-09T07:46:45;3.95;;;1.30;;
38567;SDS011;24338;48.280;10.970;2022-09-09T07:49:12;8.32;;;1.70;;
38567;SDS011;24338;48.280;10.970;2022-09-09T07:51:44;3.50;;;1.30;;
38567;SDS011;24338;48.280;10.970;2022-09-09T07:54:12;3.08;;;1.20;;
38567;SDS011;24338;48.280;10.970;2022-09-09T07:56:41;8.07;;;1.67;;
38567;SDS011;24338;48.280;10.970;2022-09-09T07:59:09;4.97;;;1.67;;
38567;SDS011;24338;48.280;10.970;2022-09-09T08:01:38;5.40;;;1.42;;
38567;SDS011;24338;48.280;10.970;2022-09-09T08:04:07;9.13;;;1.45;;
38567;SDS011;24338;48.280;10.970;2022-09-09T08:06:42;4.88;;;1.98;;
38567;SDS011;24338;48.280;10.970;2022-09-09T08:09:11;5.20;;;1.67;;
38567;SDS011;24338;48.280;10.970;2022-09-09T08:11:38;4.40;;;1.48;;
38567;SDS011;24338;48.280;10.970;2022-09-09T08:14:07;3.63;;;1.20;;
38567;SDS011;24338;48.280;10.970;2022-09-09T08:16:37;6.70;;;1.65;;
38567;SDS011;24338;48.280;10.970;2022-09-09T08:19:06;5.00;;;1.10;;
38567;SDS011;24338;48.280;10.970;2022-09-09T08:21:34;3.28;;;1.30;;
38567;SDS011;24338;48.280;10.970;2022-09-09T08:24:06;2.55;;;1.60;;
38567;SDS011;24338;48.280;10.970;2022-09-09T08:26:41;3.25;;;1.20;;
38567;SDS011;24338;48.280;10.970;2022-09-09T08:29:10;2.85;;;1.08;;
38567;SDS011;24338;48.280;10.970;2022-09-09T08:31:42;4.20;;;1.67;;
38567;SDS011;24338;48.280;10.970;2022-09-09T08:34:14;3.35;;;1.55;;
38567;SDS011;24338;48.280;10.970;2022-09-09T08:36:42;4.80;;;1.27;;
38567;SDS011;24338;48.280;10.970;2022-09-09T08:39:11;3.38;;;0.90;;
38567;SDS011;24338;48.280;10.970;2022-09-09T08:58:16;2.43;;;1.00;;
38567;SDS011;24338;48.280;10.970;2022-09-09T09:06:41;3.40;;;0.70;;
38567;SDS011;24338;48.280;10.970;2022-09-09T09:12:02;2.28;;;0.70;;
38567;SDS011;24338;48.280;10.970;2022-09-09T09:14:45;2.20;;;0.60;;
38567;SDS011;24338;48.280;10.970;2022-09-09T09:17:14;2.28;;;0.90;;
38567;SDS011;24338;48.280;10.970;2022-09-09T09:19:47;1.73;;;0.80;;
38567;SDS011;24338;48.280;10.970;2022-09-09T09:25:26;3.00;;;0.73;;
38567;SDS011;24338;48.280;10.970;2022-09-09T09:28:16;2.30;;;0.70;;
38567;SDS011;24338;48.280;10.970;2022-09-09T09:31:02;2.33;;;0.73;;
38567;SDS011;24338;48.280;10.970;2022-09-09T09:36:19;4.32;;;0.70;;
38567;SDS011;24338;48.280;10.970;2022-09-09T09:39:00;3.10;;;0.60;;
38567;SDS011;24338;48.280;10.970;2022-09-09T09:41:49;4.85;;;0.80;;
38567;SDS011;24338;48.280;10.970;2022-09-09T09:44:25;2.70;;;0.70;;
38567;SDS011;24338;48.280;10.970;2022-09-09T09:49:59;3.22;;;0.47;;
38567;SDS011;24338;48.280;10.970;2022-09-09T09:52:29;5.15;;;0.70;;
38567;SDS011;24338;48.280;10.970;2022-09-09T09:54:57;3.90;;;0.60;;
38567;SDS011;24338;48.280;10.970;2022-09-09T09:57:32;1.67;;;0.35;;
38567;SDS011;24338;48.280;10.970;2022-09-09T10:00:02;4.45;;;0.70;;
38567;SDS011;24338;48.280;10.970;2022-09-09T10:02:37;3.67;;;1.05;;
38567;SDS011;24338;48.280;10.970;2022-09-09T10:08:00;6.47;;;1.02;;
38567;SDS011;24338;48.280;10.970;2022-09-09T10:15:44;4.00;;;0.60;;
38567;SDS011;24338;48.280;10.970;2022-09-09T10:40:18;4.60;;;1.50;;
38567;SDS011;24338;48.280;10.970;2022-09-09T10:43:18;2.35;;;0.55;;
38567;SDS011;24338;48.280;10.970;2022-09-09T10:45:53;3.28;;;0.45;;
38567;SDS011;24338;48.280;10.970;2022-09-09T10:48:31;3.83;;;0.60;;
38567;SDS011;24338;48.280;10.970;2022-09-09T10:54:13;3.28;;;1.00;;
38567;SDS011;24338;48.280;10.970;2022-09-09T10:57:05;3.63;;;0.57;;
38567;SDS011;24338;48.280;10.970;2022-09-09T10:59:41;1.95;;;0.50;;
38567;SDS011;24338;48.280;10.970;2022-09-09T11:02:18;2.38;;;0.82;;
38567;SDS011;24338;48.280;10.970;2022-09-09T11:04:55;3.40;;;0.50;;
38567;SDS011;24338;48.280;10.970;2022-09-09T11:10:12;3.03;;;0.40;;
38567;SDS011;24338;48.280;10.970;2022-09-09T11:12:50;3.47;;;0.50;;
38567;SDS011;24338;48.280;10.970;2022-09-09T11:15:35;5.13;;;0.85;;
38567;SDS011;24338;48.280;10.970;2022-09-09T11:18:09;3.50;;;0.82;;
38567;SDS011;24338;48.280;10.970;2022-09-09T11:20:42;3.67;;;0.55;;
38567;SDS011;24338;48.280;10.970;2022-09-09T11:23:11;4.50;;;0.73;;
38567;SDS011;24338;48.280;10.970;2022-09-09T11:25:44;5.63;;;0.80;;
38567;SDS011;24338;48.280;10.970;2022-09-09T11:31:34;4.72;;;0.50;;
